Central Sierra Snow Lab Weather observations

Data are for 10 minute period ending at time listed.
 Day   Time    Incoming  Reflected   Ave.   Ave.    Ave.    Vector  Max.    Ave.    Total    Snow   
  of    of      Solar     Solar      Air    Rel.    Wind    Wind    Wind   Baro.   Precip.   Depth  
Year   Day     Radiation Radiation   Temp.  Humid.  Speed   Dir.    Gust   Press.                   
2015   (PST)    Kw/m2     Kw/m2       F       %      mph     deg.    mph     mb.     in.      in.   
----------------------------------------------------------------------------------------------------
 146    0:00    0.000     999.000     38.7    118     1.4      28     2.6   791.80   10.25   -3.10  
 146    0:10    0.000     999.000     38.5    117     1.7      31     2.7   791.80   10.25   -3.00  
 146    0:20    0.000     999.000     38.4    118     0.8      33     2.8   791.80   10.26   -3.00  
 146    0:30    0.000     999.000     38.3    118     1.7      33     2.8   791.80   10.26   -3.00  
 146    0:40    0.000     999.000     38.2    118     1.9      29     3.0   791.80   10.25   -3.00  
 146    0:50    0.000     999.000     38.2    119     2.9      26     3.7   791.70   10.25   -3.10  
 146    1:00    0.000     999.000     38.1    118     1.1      41     3.1   791.70   10.25   -3.10  
 146    1:10    0.000     999.000     38.0    118     2.5      29     4.0   791.70   10.25   -3.00  
 146    1:20    0.000     999.000     37.9    119     2.9      30     3.6   791.70   10.25   -3.10  
 146    1:30    0.000     999.000     37.8    119     1.9      34     2.5   791.60   10.26   -3.10  
 146    1:40    0.000     999.000     37.6    120     1.3      30     3.2   791.60   10.26   -3.00  
 146    1:50    0.000     999.000     37.6    120     2.6      26     3.7   791.50   10.25   -3.10  
 146    2:00    0.000     999.000     37.5    120     1.8      29     3.5   791.50   10.26   -3.10  
 146    2:10    0.000     999.000     37.3    120     1.7      28     2.6   791.50   10.25   -3.10  
 146    2:20    0.000     999.000     37.3    121     1.8      30     3.1   791.50   10.25   -3.10  
 146    2:30    0.000     999.000     37.3    121     2.3      29     3.4   791.50   10.26   -3.10  
 146    2:40    0.000     999.000     37.2    122     1.6      29     2.6   791.50   10.25   -3.10  
 146    2:50    0.000     999.000     37.3    122     1.3      29     3.1   791.50   10.25   -3.10  
 146    3:00    0.000     999.000     37.5    122     2.4      26     3.4   791.40   10.26   -3.10  
 146    3:10    0.000     999.000     37.3    121     1.7      31     2.7   791.40   10.26   -3.20  
 146    3:20    0.000     999.000     37.3    122     2.3      32     3.5   791.40   10.25   -3.20  
 146    3:30    0.000     999.000     37.2    122     1.5      32     3.2   791.30   10.26   -3.10  
 146    3:40    0.000     999.000     37.1    122     1.1      36     2.5   791.30   10.26   -3.20  
 146    3:50    0.000     999.000     37.0    122     2.0      33     3.2   791.30   10.25   -3.20  
 146    4:00    0.000     999.000     37.1    122     1.9      27     3.8   791.30   10.26   -3.20  
 146    4:10    0.000     999.000     37.1    122     2.8      29     4.0   791.30   10.26   -3.20  
 146    4:20    0.000     999.000     37.0    122     2.9      30     4.0   791.40   10.26   -3.20  
 146    4:30    0.000     999.000     37.0    122     0.4      48     1.5   791.40   10.25   -3.10  
 146    4:40    0.001     999.000     36.9    122     1.4      28     3.1   791.50   10.25   -3.20  
 146    4:50    0.003     999.000     37.0    123     2.7      25     3.6   791.40   10.26   -3.10  
 146    5:00    0.006     999.000     37.0    122     1.7      31     2.6   791.40   10.25   -3.10  
 146    5:10    0.009     999.000     37.1    123     2.0      30     3.0   791.40   10.25   -3.20  
 146    5:20    0.011     999.000     37.3    123     1.6      30     2.8   791.50   10.26   -3.20  
 146    5:30    0.013     999.000     37.5    123     0.9      35     2.5   791.50   10.26   -3.10  
 146    5:40    0.015     999.000     37.8    123     0.8      48     1.2   791.50   10.26   -3.10  
 146    5:50    0.017     999.000     38.2    123     1.0      46     1.4   791.60   10.26   -3.10  
 146    6:00    0.020     999.000     38.7    124     0.7      32     2.4   791.60   10.26   -3.10  
 146    6:10    0.023     999.000     39.4    124     0.6      52     1.3   791.60   10.26   -3.20  
 146    6:20    0.060     999.000     40.3    124     0.9      60     1.5   791.60   10.26   -3.20  
 146    6:30    0.075     999.000     41.5    123     0.0      61     0.6   791.60   10.26   -3.30  
 146    6:40    0.071     999.000     42.7    122     0.0       0     0.0   791.70   10.26   -3.30  
 146    6:50    0.235     999.000     44.5    111     0.0       0     0.0   791.70   10.26   -3.40  
 146    7:00    0.313     999.000     48.8     81     0.0       0     0.0   791.80   10.26   -3.50  
 146    7:10    0.365     999.000     51.7     70     0.1     177     1.3   791.80   10.26   -3.70  
 146    7:20    0.398     999.000     53.6     64     0.1     121     1.4   791.80   10.26   -4.00  
 146    7:30    0.432     999.000     52.8     66     1.3     244     3.6   791.80   10.26   -3.70  
 146    7:40    0.476     999.000     51.8     66     1.1     272     3.1   791.80   10.26   -3.60  
 146    7:50    0.521     999.000     52.4     64     2.0     150     6.1   791.80   10.26   -3.80  
 146    8:00    0.460     999.000     53.0     64     2.3     214     5.4   791.80   10.26   -3.70  
 146    8:10    0.468     999.000     52.6     62     2.1     185     4.1   791.80   10.25   -3.60  
 146    8:20    0.662     999.000     54.1     57     2.2     184     5.3   791.80   10.25   -3.90  
 146    8:30    0.707     999.000     55.0     59     2.3     203     5.8   791.80   10.26   -4.10  
 146    8:40    0.741     999.000     55.5     58     2.5     211     5.7   791.80   10.25   -4.00  
 146    8:50    0.776     999.000     56.2     56     1.9     188     5.0   791.80   10.25   -4.10  
 146    9:00    0.777     999.000     56.4     55     3.3     197     8.0   791.70   10.25   -3.90  
 146    9:10    0.780     999.000     56.1     53     2.5     192     6.8   791.70   10.25   -4.10  
 146    9:20    0.872     999.000     56.7     53     2.9     206     7.2   791.70   10.25   -4.00  
 146    9:30    0.806     999.000     57.4     50     2.9     160     6.2   791.70   10.25   -4.20  
 146    9:40    0.989     999.000     57.7     51     3.1     194     8.1   791.70   10.25   -4.00  
 146    9:50    0.642     999.000     58.4     51     3.0     184     8.4   791.70   10.25   -3.90  
 146   10:00    0.902     999.000     57.5     52     3.2     197     8.0   791.70   10.25   -3.80  
 146   10:10    0.761     999.000     57.7     51     3.9     210     8.7   791.70   10.25   -3.80  
 146   10:20    0.192     999.000     56.5     52     2.6     230     6.5   791.80   10.25   -3.70  
 146   10:30    0.153     999.000     55.9     55     2.2     233     5.6   791.80   10.25   -3.40  
 146   10:40    0.790     999.000     56.6     54     2.5     226     9.7   791.80   10.25   -3.50  
 146   10:50    0.911     999.000     59.0     49     3.2     247    10.4   791.80   10.26   -3.70  
 146   11:00    0.777     999.000     59.1     47     3.3     254     9.0   791.80   10.25   -3.80  
 146   11:10    0.812     999.000     59.6     45     2.8     245     6.8   791.80   10.25   -3.90  
 146   11:20    0.678     999.000     58.7     46     3.9     288     7.5   791.70   10.25   -3.70  
 146   11:30    0.206     999.000     57.5     52     4.2     298    10.1   791.80   10.26   -3.60  
 146   11:40    0.773     999.000     57.8     54     3.0     232     7.9   791.80   10.26   -3.50  
 146   11:50    0.217     999.000     58.0     53     3.1     248     8.2   791.90   10.25   -3.50  
 146   12:00    0.331     999.000     57.3     56     2.9     236     8.1   791.90   10.25   -3.40  
 146   12:10    0.222     999.000     56.8     57     2.5     213     6.3   791.90   10.25   -3.30  
 146   12:20    0.325     999.000     56.4     61     2.5     229     6.4   791.80   10.25   -3.30  
 146   12:30    0.497     999.000     57.1     60     3.5     246     8.8   791.70   10.25   -3.30  
 146   12:40    0.493     999.000     57.3     60     2.5     242     7.3   791.70   10.25   -3.30  
 146   12:50    0.670     999.000     58.3     58     3.7     270    10.5   791.70   10.24   -3.30  
 146   13:00    0.478     999.000     58.1     58     2.5     256     6.6   791.60   10.25   -3.40  
 146   13:10    0.239     999.000     58.1     58     3.4     244    13.1   791.70   10.25   -3.30  
 146   13:20    1.046     999.000     58.4     60     3.5     281    10.8   791.60   10.25   -3.30  
 146   13:30    0.997     999.000     59.9     58     4.0     258    13.0   791.60   10.23   -3.70  
 146   13:40    0.920     999.000     59.0     59     5.4     272    12.1   791.60   10.25   -3.60  
 146   13:50    0.886     999.000     59.0     59     5.0     252    13.4   791.60   10.25   -3.50  
 146   14:00    0.934     999.000     59.0     59     4.9     264    11.1   791.60   10.25   -3.50  
 146   14:10    0.946     999.000     60.3     57     3.1     230     9.1   791.60   10.25   -3.50  
 146   14:20    0.897     999.000     60.5     56     3.6     217    11.4   791.60   10.25   -3.60  
 146   14:30    0.866     999.000     59.8     57     4.9     237    13.7   791.60   10.25   -3.70  
 146   14:40    0.825     999.000     59.4     58     4.9     243    11.2   791.60   10.25   -3.50  
 146   14:50    0.737     999.000     59.6     57     4.0     252     9.1   791.60   10.25   -3.60  
 146   15:00    0.791     999.000     59.3     57     4.9     230    12.1   791.60   10.25   -3.50  
 146   15:10    0.696     999.000     59.4     56     4.3     259    10.1   791.60   10.25   -3.60  
 146   15:20    0.785     999.000     59.4     56     4.5     278    11.2   791.60   10.25   -3.40  
 146   15:30    0.501     999.000     60.3     54     3.8     262    11.7   791.60   10.25   -3.50  
 146   15:40    0.693     999.000     59.5     55     3.6     267     9.0   791.60   10.25   -3.40  
 146   15:50    0.591     999.000     59.5     54     3.0     224    11.3   791.60   10.25   -3.50  
 146   16:00    0.608     999.000     59.8     52     3.3     213     9.2   791.60   10.25   -3.50  
 146   16:10    0.563     999.000     59.6     52     3.7     234    10.8   791.60   10.25   -3.40  
 146   16:20    0.480     999.000     59.4     50     4.4     257    11.6   791.60   10.25   -3.50  
 146   16:30    0.419     999.000     58.7     51     3.7     233     8.3   791.70   10.25   -3.40  
 146   16:40    0.461     999.000     59.2     50     3.0     239     7.4   791.60   10.25   -3.50  
 146   16:50    0.425     999.000     58.9     50     3.5     225     7.6   791.60   10.25   -3.40  
 146   17:00    0.394     999.000     58.8     51     3.1     289     9.2   791.50   10.25   -3.50  
 146   17:10    0.362     999.000     58.9     50     2.8     250     8.9   791.50   10.25   -3.50  
 146   17:20    0.332     999.000     58.4     50     2.9     242     7.8   791.50   10.25   -3.50  
 146   17:30    0.300     999.000     58.1     50     3.1     268    10.9   791.50   10.25   -3.60  
 146   17:40    0.269     999.000     58.3     49     2.8     252     8.9   791.50   10.25   -3.70  
 146   17:50    0.238     999.000     58.7     49     1.2     244     5.4   791.50   10.25   -3.80  
 146   18:00    0.136     999.000     57.4     50     3.4     251     9.6   791.60   10.25   -3.50  
 146   18:10    0.091     999.000     56.6     52     2.7     257     7.6   791.70   10.25   -3.70  
 146   18:20    0.132     999.000     56.4     52     2.6     234     6.6   791.70   10.25   -3.60  
 146   18:30    0.087     999.000     55.7     54     1.5     219     5.1   791.70   10.25   -3.30  
 146   18:40    0.016     999.000     54.2     55     2.8     239     9.1   791.70   10.25   -3.10  
 146   18:50    0.013     999.000     53.3     57     1.7     214     8.0   791.70   10.24   -3.10  
 146   19:00    0.010     999.000     52.6     58     1.2     204     3.7   791.70   10.25   -3.00  
 146   19:10    0.007     999.000     52.0     60     1.6     282     3.6   791.70   10.25   -3.00  
 146   19:20    0.004     999.000     51.2     63     0.6     314     1.7   791.80   10.25   -3.00  
 146   19:30    0.001     999.000     50.2     66     0.3      30     1.6   791.80   10.25   -3.00  
 146   19:40    0.000     999.000     49.1     70     0.7      43     1.3   791.90   10.25   -2.90  
 146   19:50    0.000     999.000     48.3     72     1.2      50     2.4   792.00   10.25   -3.00  
 146   20:00    0.000     999.000     47.5     74     1.5      40     2.2   792.00   10.24   -2.90  
 146   20:10    0.000     999.000     46.8     77     1.7      35     2.3   792.10   10.25   -3.00  
 146   20:20    0.000     999.000     46.3     78     0.9      49     1.7   792.20   10.25   -3.00  
 146   20:30    0.000     999.000     46.1     78     0.9      45     1.7   792.30   10.25   -3.10  
 146   20:40    0.000     999.000     45.7     80     1.2      36     2.2   792.30   10.25   -3.10  
 146   20:50    0.000     999.000     45.2     81     1.2      31     2.5   792.40   10.25   -3.10  
 146   21:00    0.000     999.000     44.7     82     1.1      23     1.9   792.50   10.25   -3.00  
 146   21:10    0.000     999.000     44.2     84     1.8      26     3.3   792.50   10.25   -2.90  
 146   21:20    0.000     999.000     43.9     84     2.4      27     3.3   792.60   10.25   -2.90  
 146   21:30    0.000     999.000     43.5     85     1.7      26     4.7   792.60   10.25   -2.90  
 146   21:40    0.000     999.000     43.1     86     1.3      29     2.9   792.60   10.25   -2.80  
 146   21:50    0.000     999.000     42.6     86     2.1      24     3.0   792.50   10.25   -2.90  
 146   22:00    0.000     999.000     42.3     86     1.7      26     2.5   792.50   10.26   -2.80  
 146   22:10    0.000     999.000     42.0     85     2.7      28     4.2   792.50   10.26   -2.80  
 146   22:20    0.000     999.000     41.6     86     1.9      32     3.3   792.50   10.25   -2.90  

Return to Central Sierra Snow Lab graphs page.


Western Regional Climate Center,wrcc@dri.edu